This is the latest recevied weather packets stored in our database for station/object JE7UPL-13. If no packets are shown the sender has not sent any weather packets the latest 10 day(s).
| Time | Temp. | Humidity | Pressure | Rain* | Wind** | Luminosity | Snow |
|---|---|---|---|---|---|---|---|
| 1777510807 | 17.22° C | 30% | 1016.6 hPa | 0 mm | - | - | - |
| 1777509905 | 17.22° C | 29% | 1016.8 hPa | 0 mm | - | - | - |
| 1777509006 | 17.22° C | 29% | 1016.7 hPa | 0 mm | - | - | - |
| 1777508105 | 16.67° C | 31% | 1016.7 hPa | 0 mm | - | - | - |
| 1777507206 | 16.11° C | 32% | 1016.5 hPa | 0 mm | - | - | - |
| 1777506305 | 15.56° C | 35% | 1016.6 hPa | 0 mm | - | - | - |
| 1777505406 | 15.56° C | 34% | 1016.7 hPa | 0 mm | - | - | - |
| 1777504505 | 15.56° C | 35% | 1016.7 hPa | 0 mm | - | - | - |
| 1777503605 | 15° C | 36% | 1016.7 hPa | 0 mm | - | - | - |
| 1777502705 | 15° C | 37% | 1017 hPa | 0 mm | - | - | - |
| 1777501806 | 13.89° C | 40% | 1016.8 hPa | 0 mm | - | - | - |
| 1777500906 | 13.89° C | 41% | 1017.1 hPa | 0 mm | - | - | - |
| 1777500006 | 13.33° C | 45% | 1017.1 hPa | 0 mm | - | - | - |
| 1777499105 | 12.78° C | 49% | 1017 hPa | 0 mm | - | - | - |
| 1777498206 | 12.22° C | 50% | 1017.2 hPa | 0 mm | - | - | - |
| 1777497306 | 11.67° C | 53% | 1017 hPa | 0 mm | - | - | - |
| 1777496406 | 11.67° C | 54% | 1017 hPa | 0 mm | - | - | - |
| 1777495506 | 10.56° C | 61% | 1016.8 hPa | 0 mm | - | - | - |
| 1777494605 | 8.89° C | 66% | 1016.5 hPa | 0 mm | - | - | - |
| 1777493705 | 8.33° C | 71% | 1016.7 hPa | 0 mm | - | - | - |
| 1777492805 | 7.78° C | 71% | 1016.7 hPa | 0 mm | - | - | - |
| 1777491905 | 7.78° C | 69% | 1016.6 hPa | 0 mm | - | - | - |
| 1777491006 | 7.78° C | 71% | 1016.6 hPa | 0 mm | - | - | - |
| 1777490106 | 7.22° C | 74% | 1016.7 hPa | 0 mm | - | - | - |
| 1777489205 | 6.11° C | 80% | 1016.8 hPa | 0 mm | - | - | - |
* Rain latest hour (hover to see other rain measurements)
** Current wind speed in m/s (hover to see current wind gust speed)